createdAt,value
2023-01-05T00:00:25.541Z,1.38
2023-01-05T00:05:26.986Z,2.00
2023-01-05T00:10:47.169Z,1.10
2023-01-05T00:16:07.266Z,0.57
2023-01-05T00:21:33.146Z,1.45
2023-01-05T00:26:38.066Z,0.68
2023-01-05T00:31:39.665Z,0.32
2023-01-05T00:36:41.783Z,0.60
2023-01-05T00:41:44.313Z,0.57
2023-01-05T00:46:46.063Z,0.40
2023-01-05T00:51:50.059Z,0.28
2023-01-05T00:56:51.572Z,0.98
2023-01-05T01:02:00.337Z,1.33
2023-01-05T01:07:03.097Z,0.77
2023-01-05T01:12:04.991Z,0.30
2023-01-05T01:17:07.716Z,0.47
2023-01-05T01:22:09.558Z,0.47
2023-01-05T01:27:13.952Z,0.70
2023-01-05T01:32:15.572Z,0.38
2023-01-05T01:37:17.507Z,0.38
2023-01-05T01:42:22.006Z,1.33
2023-01-05T01:47:41.182Z,0.98
2023-01-05T01:52:45.654Z,1.08
2023-01-05T01:57:50.112Z,0.50
2023-01-05T02:02:55.285Z,0.63
2023-01-05T02:07:58.695Z,0.60
2023-01-05T02:13:31.911Z,0.50
2023-01-05T02:19:15.486Z,1.08
2023-01-05T02:24:43.224Z,1.23
2023-01-05T02:30:03.194Z,1.00
2023-01-05T02:35:20.998Z,2.40
2023-01-05T02:40:29.955Z,0.60
2023-01-05T02:45:31.430Z,1.52
2023-01-05T02:50:52.349Z,12.13
2023-01-05T02:56:00.305Z,2.85
2023-01-05T03:01:17.157Z,3.22
2023-01-05T03:06:26.300Z,2.08
2023-01-05T03:11:55.907Z,3.47
2023-01-05T03:16:59.637Z,5.57
2023-01-05T03:22:23.048Z,4.83
2023-01-05T03:27:43.667Z,5.97
2023-01-05T03:33:24.328Z,5.63
2023-01-05T03:38:33.058Z,6.75
2023-01-05T03:43:37.538Z,5.47
2023-01-05T03:53:40.237Z,6.55
2023-01-05T03:58:41.580Z,10.85
2023-01-05T04:03:42.962Z,10.15
2023-01-05T04:08:44.699Z,5.50
2023-01-05T04:13:47.417Z,7.25
2023-01-05T04:18:49.415Z,5.28
2023-01-05T04:23:51.542Z,9.35
2023-01-05T04:28:53.166Z,9.25
2023-01-05T04:33:54.824Z,5.25
2023-01-05T04:38:56.237Z,5.53
2023-01-05T04:43:58.278Z,8.13
2023-01-05T04:48:59.763Z,8.02
2023-01-05T04:54:02.943Z,7.57
2023-01-05T04:59:04.550Z,9.60
2023-01-05T05:04:05.977Z,10.88
2023-01-05T05:09:07.347Z,10.45
2023-01-05T05:14:08.789Z,9.70
2023-01-05T05:19:10.552Z,8.57
2023-01-05T05:24:12.080Z,9.55
2023-01-05T05:29:13.483Z,7.45
2023-01-05T05:34:14.876Z,6.90
2023-01-05T05:39:17.808Z,10.02
2023-01-05T05:44:19.348Z,9.00
2023-01-05T05:49:20.693Z,11.55
2023-01-05T05:54:22.086Z,8.10
2023-01-05T05:59:23.459Z,7.95
2023-01-05T06:04:24.872Z,8.13
2023-01-05T06:09:26.763Z,12.05
2023-01-05T06:14:28.207Z,5.05
2023-01-05T06:19:29.804Z,5.70
2023-01-05T06:24:31.296Z,6.00
2023-01-05T06:29:32.745Z,10.93
2023-01-05T06:34:34.275Z,8.05
2023-01-05T06:39:35.711Z,10.65
2023-01-05T06:44:37.187Z,5.38
2023-01-05T06:49:40.920Z,8.30
2023-01-05T06:54:42.327Z,6.87
2023-01-05T06:59:43.971Z,6.82
2023-01-05T07:04:46.809Z,11.23
2023-01-05T07:09:49.480Z,9.23
2023-01-05T07:14:57.238Z,10.02
2023-01-05T07:20:00.452Z,9.27
2023-01-05T07:25:02.290Z,8.85
2023-01-05T07:30:04.329Z,7.03
2023-01-05T07:35:05.892Z,7.75
2023-01-05T07:40:08.223Z,8.10
2023-01-05T07:45:10.401Z,6.22
2023-01-05T07:50:12.555Z,9.07
2023-01-05T07:55:14.128Z,5.55
2023-01-05T08:00:15.976Z,8.45
2023-01-05T08:05:17.618Z,7.65
2023-01-05T08:10:31.142Z,10.48
2023-01-05T08:15:32.525Z,8.35
2023-01-05T08:20:34.001Z,5.70
2023-01-05T08:25:35.433Z,7.00
2023-01-05T08:30:36.997Z,7.45
2023-01-05T08:35:42.903Z,8.23
2023-01-05T08:40:44.947Z,6.85
2023-01-05T08:46:10.075Z,7.88
2023-01-05T08:51:11.683Z,4.65
2023-01-05T08:56:14.339Z,5.05
2023-01-05T09:01:18.431Z,4.57
2023-01-05T09:06:20.374Z,6.82
2023-01-05T09:11:24.267Z,6.28
2023-01-05T09:17:04.769Z,4.30
2023-01-05T09:21:52.209Z,9.32
2023-01-05T09:26:53.774Z,7.60
2023-01-05T09:31:56.253Z,8.68
2023-01-05T09:36:58.144Z,8.60
2023-01-05T09:42:04.469Z,6.78
2023-01-05T09:47:42.884Z,9.93
2023-01-05T09:52:45.868Z,10.65
2023-01-05T09:57:58.487Z,9.07
2023-01-05T10:03:08.829Z,11.35
2023-01-05T10:08:19.687Z,7.57
2023-01-05T10:13:31.009Z,9.90
2023-01-05T10:18:34.623Z,10.02
2023-01-05T10:23:56.142Z,6.67
2023-01-05T10:29:00.314Z,9.57
2023-01-05T10:34:24.191Z,7.30
2023-01-05T10:39:56.026Z,6.63
2023-01-05T10:45:03.659Z,7.32
2023-01-05T10:50:36.826Z,9.68
2023-01-05T10:56:04.220Z,8.23
2023-01-05T11:01:25.288Z,6.63
2023-01-05T11:06:37.677Z,9.18
2023-01-05T11:11:39.845Z,9.30
2023-01-05T11:16:52.893Z,7.93
2023-01-05T11:22:01.481Z,10.00
2023-01-05T11:27:24.164Z,8.38
2023-01-05T11:32:26.135Z,12.95
2023-01-05T11:37:30.208Z,12.27
2023-01-05T11:42:42.790Z,8.95
2023-01-05T11:47:47.496Z,7.78
2023-01-05T11:52:55.166Z,10.07
2023-01-05T11:58:32.026Z,11.95
2023-01-05T12:03:59.026Z,9.27
2023-01-05T12:09:34.653Z,9.75
2023-01-05T12:14:52.606Z,10.15
2023-01-05T12:20:06.550Z,9.93
2023-01-05T12:25:13.640Z,12.30
2023-01-05T12:36:13.512Z,10.88
2023-01-05T12:41:39.624Z,11.77
2023-01-05T12:47:09.098Z,13.88
2023-01-05T12:52:44.351Z,9.85
2023-01-05T12:57:57.273Z,11.93
2023-01-05T13:03:02.454Z,10.95
2023-01-05T13:08:20.285Z,10.73
2023-01-05T13:13:30.395Z,8.75
2023-01-05T13:18:36.848Z,9.82
2023-01-05T13:23:53.108Z,10.18
2023-01-05T13:28:58.702Z,9.57
2023-01-05T13:34:17.406Z,8.70
2023-01-05T13:39:33.647Z,9.40
2023-01-05T13:44:44.220Z,11.65
2023-01-05T13:50:17.158Z,10.65
2023-01-05T13:55:26.116Z,12.73
2023-01-05T14:00:34.848Z,10.75
2023-01-05T14:05:48.714Z,12.10
2023-01-05T14:11:08.908Z,11.80
2023-01-05T14:16:49.512Z,7.60
2023-01-05T14:21:54.368Z,8.40
2023-01-05T14:27:04.926Z,8.98
2023-01-05T14:32:27.053Z,9.82
2023-01-05T14:37:50.573Z,7.07
2023-01-05T14:42:52.282Z,11.52
2023-01-05T14:47:59.093Z,7.72
2023-01-05T14:53:09.313Z,9.25
2023-01-05T14:58:16.718Z,10.05
2023-01-05T15:03:31.245Z,13.18
2023-01-05T15:09:01.051Z,10.57
2023-01-05T15:14:47.525Z,9.57
2023-01-05T15:20:23.238Z,10.10
2023-01-05T15:26:03.441Z,9.90
2023-01-05T15:31:31.150Z,7.33
2023-01-05T15:36:43.996Z,8.73
2023-01-05T15:41:45.503Z,13.98
2023-01-05T15:46:49.909Z,8.60
2023-01-05T15:51:55.806Z,13.88
2023-01-05T15:56:59.685Z,9.35
2023-01-05T16:02:01.461Z,13.38
2023-01-05T16:07:05.463Z,7.75
2023-01-05T16:12:24.123Z,11.80
2023-01-05T16:17:30.566Z,11.52
2023-01-05T16:23:00.998Z,13.77
2023-01-05T16:28:05.323Z,11.13
2023-01-05T16:33:13.501Z,13.52
2023-01-05T16:38:23.672Z,13.30
2023-01-05T16:43:33.580Z,9.43
2023-01-05T16:48:35.091Z,12.52
2023-01-05T16:53:42.994Z,9.52
2023-01-05T16:58:44.633Z,8.82
2023-01-05T17:03:46.772Z,9.95
2023-01-05T17:08:48.827Z,8.23
2023-01-05T17:13:53.410Z,12.25
2023-01-05T17:24:00.991Z,12.75
2023-01-05T17:29:04.835Z,11.38
2023-01-05T17:34:06.144Z,12.00
2023-01-05T17:39:07.719Z,9.27
2023-01-05T17:44:11.552Z,14.75
2023-01-05T17:49:17.221Z,9.77
2023-01-05T17:54:18.678Z,13.32
2023-01-05T17:59:20.238Z,12.70
2023-01-05T18:04:23.117Z,8.85
2023-01-05T18:09:24.879Z,13.88
2023-01-05T18:14:28.889Z,14.82
2023-01-05T18:19:33.476Z,13.88
2023-01-05T18:24:35.325Z,8.50
2023-01-05T18:29:39.129Z,15.32
2023-01-05T18:34:40.591Z,14.23
2023-01-05T18:39:43.452Z,15.10
2023-01-05T18:44:44.844Z,7.70
2023-01-05T18:49:46.256Z,12.95
2023-01-05T18:54:48.987Z,13.40
2023-01-05T18:59:51.818Z,11.88
2023-01-05T19:04:54.052Z,14.13
2023-01-05T19:09:55.510Z,11.52
2023-01-05T19:14:59.499Z,10.07
2023-01-05T19:20:01.649Z,12.45
2023-01-05T19:25:05.751Z,12.63
2023-01-05T19:30:10.925Z,10.40
2023-01-05T19:35:12.276Z,12.23
2023-01-05T19:40:16.724Z,13.05
2023-01-05T19:45:18.355Z,14.55
2023-01-05T19:50:20.002Z,7.57
2023-01-05T19:55:21.406Z,10.18
2023-01-05T20:00:23.043Z,12.75
2023-01-05T20:05:24.358Z,14.25
2023-01-05T20:10:26.453Z,15.52
2023-01-05T20:15:28.069Z,11.07
2023-01-05T20:20:31.918Z,11.48
2023-01-05T20:25:33.590Z,10.73
2023-01-05T20:30:35.547Z,13.68
2023-01-05T20:35:40.740Z,11.50
2023-01-05T20:40:43.173Z,10.23
2023-01-05T20:45:45.643Z,16.13
2023-01-05T20:50:49.669Z,11.23
2023-01-05T20:55:53.004Z,14.93
2023-01-05T21:01:11.113Z,10.13
2023-01-05T21:06:17.060Z,10.50
2023-01-05T21:11:19.384Z,13.32
2023-01-05T21:16:33.379Z,9.55
2023-01-05T21:21:35.039Z,10.50
2023-01-05T21:26:36.500Z,10.40
2023-01-05T21:31:39.318Z,11.00
2023-01-05T21:36:44.906Z,12.23
2023-01-05T21:42:07.503Z,9.50
2023-01-05T21:47:09.102Z,11.63
2023-01-05T21:52:29.514Z,13.25
2023-01-05T21:57:31.360Z,10.10
2023-01-05T22:02:33.128Z,8.68
2023-01-05T22:07:34.552Z,8.25
2023-01-05T22:12:35.912Z,9.98
2023-01-05T22:17:37.527Z,9.68
2023-01-05T22:22:38.966Z,10.95
2023-01-05T22:27:40.419Z,10.20
2023-01-05T22:32:43.939Z,8.52
2023-01-05T22:37:50.798Z,6.68
2023-01-05T22:42:52.159Z,7.03
2023-01-05T22:47:53.616Z,9.60
2023-01-05T22:52:54.996Z,12.55
2023-01-05T22:57:56.390Z,10.40
2023-01-05T23:03:00.186Z,8.45
2023-01-05T23:08:01.665Z,8.03
2023-01-05T23:13:06.311Z,9.63
2023-01-05T23:18:07.767Z,8.25
2023-01-05T23:23:10.658Z,7.07
2023-01-05T23:28:12.274Z,7.40
2023-01-05T23:33:15.153Z,9.18
2023-01-05T23:38:17.471Z,8.07
2023-01-05T23:43:23.700Z,6.93
2023-01-05T23:48:25.236Z,6.43
2023-01-05T23:53:27.872Z,7.63
2023-01-05T23:58:29.217Z,5.45
